Etusivu
METAR-TAF:

METAR-TAF

Lentoasemat :

Rarotonga, Cookinsaaret

Rarotongan kansainvälinen lentoasema

Leveyspiiri: 21-12S, Pituuspiiri: 159-49W, korkeus merenpinnasta: 7 m

Tämänhetkinen sää

Tämä raportti tehtiin 51 minuuttia sitten, kello 17.00 UTC
Tuuli 7 kn idästä/kaakosta
Lämpötila 25°C
Kosteus 79%
Ilmanpaine 1014 hPa
Näkyvyys 10 km tai enemmän
Muutamia pilviä 1600 ft:n korkeudessa
Hajanaisia pilviä 10000 ft:n korkeudessa
Hajanaisia pilviä 29000 ft:n korkeudessa

METAR: NCRG 191700Z 11007KT 9999 FEW016 SCT100 SCT290 25/21 Q1014

Aika: 07:51 (17:51 UTC)

Sääennuste

Tämä raportti tehtiin 36 minuuttia sitten, kello 17.15 UTC
Ennuste voimassa 19. päivästä klo 18 UTC - 20. päivään klo 18 UTC
Tuuli 8 kn idästä/kaakosta
Näkyvyys 10 km tai enemmän
Hajanaisia pilviä 1400 ft:n korkeudessa
Hajonneita pilviä 4000 ft:n korkeudessa

TAF: NCRG 191715Z 1918/2018 11008KT 9999 SCT014 BKN040

Säähavainnot ja -ennusteet yli 4000 lentoasemalta (METAR- ja TAF-raportit).

Käytössä olevat sääasemat on merkitty karttaan keltaisilla ja punaisilla pisteillä.

Aseta hiiri pisteen päälle nähdäksesi sääaseman nimen.

Klikkaa sitten nähdäksesi säähavainnot ja -ennusteet.

Kartan vaihtaminen: klikkaa mustalla rastilla varustettuja vihreitä pisteitä, niin voit zoomata sisään; viivalla varustettua vihreää pistettä, niin voit zoomata ulos tai vihreitä nuolia, niin pääset viereisille kartoille.


METAR-TAF: